Terminal Aerodrome Forecast
Issued by NWS

Home | Current Version | Previous Version | Text Only | Print | Product List | Glossary On
Versions: 1 2 3 4 5 6 7 8 9 10 11 12 13 14 15 16 17 18 19
000
FTUS46 KSEW 230500
TAFBLI
TAF
KBLI 230534Z 2306/2406 15007KT P6SM SCT040 OVC100
     FM231200 16016G27KT 6SM -RA BR OVC030
     FM231500 19010KT P6SM -SHRA SCT018 BKN035
     FM232100 20008KT P6SM VCSH BKN035
     FM240300 17004KT P6SM BKN040=

USA.gov is the U.S. government's official web portal to all federal, state and local government web resources and services.